sensor_id;sensor_type;location;lat;lon;timestamp;P1;durP1;ratioP1;P2;durP2;ratioP2
71941;SDS011;59997;53.300;-6.260;2024-02-21T00:00:15;6.00;;;0.60;;
71941;SDS011;59997;53.300;-6.260;2024-02-21T00:02:42;6.40;;;0.93;;
71941;SDS011;59997;53.300;-6.260;2024-02-21T00:05:07;3.77;;;0.50;;
71941;SDS011;59997;53.300;-6.260;2024-02-21T00:07:33;7.67;;;0.67;;
71941;SDS011;59997;53.300;-6.260;2024-02-21T00:09:58;7.60;;;0.90;;
71941;SDS011;59997;53.300;-6.260;2024-02-21T00:12:24;4.13;;;0.63;;
71941;SDS011;59997;53.300;-6.260;2024-02-21T00:14:49;3.97;;;0.50;;
71941;SDS011;59997;53.300;-6.260;2024-02-21T00:17:15;5.57;;;0.57;;
71941;SDS011;59997;53.300;-6.260;2024-02-21T00:19:40;7.10;;;0.60;;
71941;SDS011;59997;53.300;-6.260;2024-02-21T00:22:06;6.93;;;0.70;;
71941;SDS011;59997;53.300;-6.260;2024-02-21T00:24:32;7.93;;;0.63;;
71941;SDS011;59997;53.300;-6.260;2024-02-21T00:26:57;7.50;;;0.90;;
71941;SDS011;59997;53.300;-6.260;2024-02-21T00:29:22;5.03;;;0.43;;
71941;SDS011;59997;53.300;-6.260;2024-02-21T00:31:49;9.93;;;0.70;;
71941;SDS011;59997;53.300;-6.260;2024-02-21T00:34:15;6.93;;;0.73;;
71941;SDS011;59997;53.300;-6.260;2024-02-21T00:36:40;6.93;;;1.25;;
71941;SDS011;59997;53.300;-6.260;2024-02-21T00:39:06;4.73;;;0.60;;
71941;SDS011;59997;53.300;-6.260;2024-02-21T00:41:31;8.33;;;1.00;;
71941;SDS011;59997;53.300;-6.260;2024-02-21T00:43:58;5.70;;;0.65;;
71941;SDS011;59997;53.300;-6.260;2024-02-21T00:46:23;5.53;;;0.60;;
71941;SDS011;59997;53.300;-6.260;2024-02-21T00:48:49;8.13;;;0.80;;
71941;SDS011;59997;53.300;-6.260;2024-02-21T00:51:15;4.85;;;0.55;;
71941;SDS011;59997;53.300;-6.260;2024-02-21T00:53:42;6.33;;;0.70;;
71941;SDS011;59997;53.300;-6.260;2024-02-21T00:56:07;7.50;;;0.70;;
71941;SDS011;59997;53.300;-6.260;2024-02-21T00:58:33;8.98;;;1.00;;
71941;SDS011;59997;53.300;-6.260;2024-02-21T01:01:00;6.03;;;0.80;;
71941;SDS011;59997;53.300;-6.260;2024-02-21T01:03:25;6.63;;;0.80;;
71941;SDS011;59997;53.300;-6.260;2024-02-21T01:05:52;6.10;;;0.60;;
71941;SDS011;59997;53.300;-6.260;2024-02-21T01:08:17;8.45;;;0.60;;
71941;SDS011;59997;53.300;-6.260;2024-02-21T01:10:43;6.93;;;0.60;;
71941;SDS011;59997;53.300;-6.260;2024-02-21T01:13:09;7.25;;;0.82;;
71941;SDS011;59997;53.300;-6.260;2024-02-21T01:15:34;6.07;;;0.70;;
71941;SDS011;59997;53.300;-6.260;2024-02-21T01:18:00;9.00;;;0.90;;
71941;SDS011;59997;53.300;-6.260;2024-02-21T01:20:26;10.48;;;1.27;;
71941;SDS011;59997;53.300;-6.260;2024-02-21T01:22:52;7.07;;;0.70;;
71941;SDS011;59997;53.300;-6.260;2024-02-21T01:25:17;8.55;;;0.82;;
71941;SDS011;59997;53.300;-6.260;2024-02-21T01:27:43;6.70;;;0.80;;
71941;SDS011;59997;53.300;-6.260;2024-02-21T01:30:08;13.50;;;1.00;;
71941;SDS011;59997;53.300;-6.260;2024-02-21T01:32:35;7.63;;;0.77;;
71941;SDS011;59997;53.300;-6.260;2024-02-21T01:35:01;7.28;;;0.65;;
71941;SDS011;59997;53.300;-6.260;2024-02-21T01:37:26;7.57;;;0.70;;
71941;SDS011;59997;53.300;-6.260;2024-02-21T01:39:52;6.93;;;0.80;;
71941;SDS011;59997;53.300;-6.260;2024-02-21T01:42:18;5.43;;;0.90;;
71941;SDS011;59997;53.300;-6.260;2024-02-21T01:44:44;8.37;;;0.90;;
71941;SDS011;59997;53.300;-6.260;2024-02-21T01:47:10;8.38;;;0.95;;
71941;SDS011;59997;53.300;-6.260;2024-02-21T01:49:39;7.13;;;1.10;;
71941;SDS011;59997;53.300;-6.260;2024-02-21T01:52:05;6.57;;;1.03;;
71941;SDS011;59997;53.300;-6.260;2024-02-21T01:54:31;10.07;;;0.77;;
71941;SDS011;59997;53.300;-6.260;2024-02-21T01:56:57;9.00;;;1.13;;
71941;SDS011;59997;53.300;-6.260;2024-02-21T01:59:23;6.87;;;0.80;;
71941;SDS011;59997;53.300;-6.260;2024-02-21T02:01:49;5.80;;;1.02;;
71941;SDS011;59997;53.300;-6.260;2024-02-21T02:04:17;8.50;;;1.33;;
71941;SDS011;59997;53.300;-6.260;2024-02-21T02:06:45;7.53;;;0.90;;
71941;SDS011;59997;53.300;-6.260;2024-02-21T02:09:10;7.60;;;1.20;;
71941;SDS011;59997;53.300;-6.260;2024-02-21T02:11:36;8.00;;;1.48;;
71941;SDS011;59997;53.300;-6.260;2024-02-21T02:14:02;8.57;;;1.20;;
71941;SDS011;59997;53.300;-6.260;2024-02-21T02:16:28;7.43;;;1.60;;
71941;SDS011;59997;53.300;-6.260;2024-02-21T02:18:53;8.37;;;1.37;;
71941;SDS011;59997;53.300;-6.260;2024-02-21T02:24:24;6.50;;;1.20;;
71941;SDS011;59997;53.300;-6.260;2024-02-21T02:26:53;7.80;;;1.15;;
71941;SDS011;59997;53.300;-6.260;2024-02-21T02:29:18;1.90;;;0.20;;
71941;SDS011;59997;53.300;-6.260;2024-02-21T02:31:44;2.30;;;0.30;;
71941;SDS011;59997;53.300;-6.260;2024-02-21T02:34:10;1.33;;;0.10;;
71941;SDS011;59997;53.300;-6.260;2024-02-21T02:36:35;0.93;;;0.17;;
71941;SDS011;59997;53.300;-6.260;2024-02-21T02:39:01;1.92;;;0.20;;
71941;SDS011;59997;53.300;-6.260;2024-02-21T02:41:26;1.47;;;0.10;;
71941;SDS011;59997;53.300;-6.260;2024-02-21T02:43:52;1.23;;;0.20;;
71941;SDS011;59997;53.300;-6.260;2024-02-21T02:46:17;1.40;;;0.10;;
71941;SDS011;59997;53.300;-6.260;2024-02-21T02:48:43;1.67;;;0.20;;
71941;SDS011;59997;53.300;-6.260;2024-02-21T02:51:10;1.23;;;0.10;;
71941;SDS011;59997;53.300;-6.260;2024-02-21T02:53:35;1.43;;;0.10;;
71941;SDS011;59997;53.300;-6.260;2024-02-21T02:56:01;1.05;;;0.15;;
71941;SDS011;59997;53.300;-6.260;2024-02-21T02:58:26;1.53;;;0.10;;
71941;SDS011;59997;53.300;-6.260;2024-02-21T03:00:52;1.43;;;0.20;;
71941;SDS011;59997;53.300;-6.260;2024-02-21T03:03:17;1.17;;;0.10;;
71941;SDS011;59997;53.300;-6.260;2024-02-21T03:05:43;1.43;;;0.10;;
71941;SDS011;59997;53.300;-6.260;2024-02-21T03:08:09;1.20;;;0.10;;
71941;SDS011;59997;53.300;-6.260;2024-02-21T03:10:34;1.47;;;0.20;;
71941;SDS011;59997;53.300;-6.260;2024-02-21T03:13:00;1.17;;;0.17;;
71941;SDS011;59997;53.300;-6.260;2024-02-21T03:15:26;1.37;;;0.17;;
71941;SDS011;59997;53.300;-6.260;2024-02-21T03:17:52;1.45;;;0.10;;
71941;SDS011;59997;53.300;-6.260;2024-02-21T03:20:17;2.13;;;0.17;;
71941;SDS011;59997;53.300;-6.260;2024-02-21T03:22:44;0.90;;;0.10;;
71941;SDS011;59997;53.300;-6.260;2024-02-21T03:25:10;1.67;;;0.20;;
71941;SDS011;59997;53.300;-6.260;2024-02-21T03:27:36;1.57;;;0.10;;
71941;SDS011;59997;53.300;-6.260;2024-02-21T03:30:01;2.30;;;0.20;;
71941;SDS011;59997;53.300;-6.260;2024-02-21T03:32:27;1.83;;;0.20;;
71941;SDS011;59997;53.300;-6.260;2024-02-21T03:34:54;1.77;;;0.20;;
71941;SDS011;59997;53.300;-6.260;2024-02-21T03:37:20;2.35;;;0.20;;
71941;SDS011;59997;53.300;-6.260;2024-02-21T03:39:45;2.20;;;0.30;;
71941;SDS011;59997;53.300;-6.260;2024-02-21T03:42:11;2.28;;;0.30;;
71941;SDS011;59997;53.300;-6.260;2024-02-21T03:44:36;2.27;;;0.30;;
71941;SDS011;59997;53.300;-6.260;2024-02-21T03:47:02;2.42;;;0.30;;
71941;SDS011;59997;53.300;-6.260;2024-02-21T03:49:28;2.33;;;0.20;;
71941;SDS011;59997;53.300;-6.260;2024-02-21T03:51:53;2.78;;;0.50;;
71941;SDS011;59997;53.300;-6.260;2024-02-21T03:54:19;2.67;;;0.30;;
71941;SDS011;59997;53.300;-6.260;2024-02-21T03:56:45;2.38;;;0.22;;
71941;SDS011;59997;53.300;-6.260;2024-02-21T03:59:12;2.10;;;0.20;;
71941;SDS011;59997;53.300;-6.260;2024-02-21T04:01:38;1.57;;;0.20;;
71941;SDS011;59997;53.300;-6.260;2024-02-21T04:04:04;1.70;;;0.20;;
71941;SDS011;59997;53.300;-6.260;2024-02-21T04:06:29;1.27;;;0.20;;
71941;SDS011;59997;53.300;-6.260;2024-02-21T04:08:55;1.73;;;0.20;;
71941;SDS011;59997;53.300;-6.260;2024-02-21T04:11:21;2.72;;;0.15;;
71941;SDS011;59997;53.300;-6.260;2024-02-21T04:13:46;1.80;;;0.20;;
71941;SDS011;59997;53.300;-6.260;2024-02-21T04:16:14;1.35;;;0.10;;
71941;SDS011;59997;53.300;-6.260;2024-02-21T04:18:40;1.80;;;0.20;;
71941;SDS011;59997;53.300;-6.260;2024-02-21T04:21:06;1.33;;;0.10;;
71941;SDS011;59997;53.300;-6.260;2024-02-21T04:23:31;1.10;;;0.15;;
71941;SDS011;59997;53.300;-6.260;2024-02-21T04:25:57;1.40;;;0.10;;
71941;SDS011;59997;53.300;-6.260;2024-02-21T04:28:23;2.20;;;0.20;;
71941;SDS011;59997;53.300;-6.260;2024-02-21T04:30:48;1.37;;;0.20;;
71941;SDS011;59997;53.300;-6.260;2024-02-21T04:33:14;1.10;;;0.10;;
71941;SDS011;59997;53.300;-6.260;2024-02-21T04:35:39;1.23;;;0.20;;
71941;SDS011;59997;53.300;-6.260;2024-02-21T04:38:05;1.10;;;0.10;;
71941;SDS011;59997;53.300;-6.260;2024-02-21T04:40:30;1.20;;;0.20;;
71941;SDS011;59997;53.300;-6.260;2024-02-21T04:42:56;1.53;;;0.20;;
71941;SDS011;59997;53.300;-6.260;2024-02-21T04:45:22;1.40;;;0.10;;
71941;SDS011;59997;53.300;-6.260;2024-02-21T04:47:48;0.87;;;0.10;;
71941;SDS011;59997;53.300;-6.260;2024-02-21T04:50:13;1.10;;;0.10;;
71941;SDS011;59997;53.300;-6.260;2024-02-21T04:52:39;0.80;;;0.10;;
71941;SDS011;59997;53.300;-6.260;2024-02-21T04:55:04;0.68;;;0.10;;
71941;SDS011;59997;53.300;-6.260;2024-02-21T04:57:31;0.50;;;0.10;;
71941;SDS011;59997;53.300;-6.260;2024-02-21T04:59:56;0.70;;;0.10;;
71941;SDS011;59997;53.300;-6.260;2024-02-21T05:02:22;1.77;;;0.20;;
71941;SDS011;59997;53.300;-6.260;2024-02-21T05:04:49;0.95;;;0.10;;
71941;SDS011;59997;53.300;-6.260;2024-02-21T05:07:15;0.90;;;0.10;;
71941;SDS011;59997;53.300;-6.260;2024-02-21T05:09:42;0.77;;;0.10;;
71941;SDS011;59997;53.300;-6.260;2024-02-21T05:12:08;0.88;;;0.10;;
71941;SDS011;59997;53.300;-6.260;2024-02-21T05:14:33;1.55;;;0.20;;
71941;SDS011;59997;53.300;-6.260;2024-02-21T05:16:59;1.63;;;0.10;;
71941;SDS011;59997;53.300;-6.260;2024-02-21T05:19:25;1.27;;;0.20;;
71941;SDS011;59997;53.300;-6.260;2024-02-21T05:21:50;1.47;;;0.20;;
71941;SDS011;59997;53.300;-6.260;2024-02-21T05:24:16;1.10;;;0.20;;
71941;SDS011;59997;53.300;-6.260;2024-02-21T05:26:41;1.17;;;0.20;;
71941;SDS011;59997;53.300;-6.260;2024-02-21T05:29:07;1.30;;;0.20;;
71941;SDS011;59997;53.300;-6.260;2024-02-21T05:34:16;1.02;;;0.10;;
71941;SDS011;59997;53.300;-6.260;2024-02-21T05:36:42;0.80;;;0.10;;
71941;SDS011;59997;53.300;-6.260;2024-02-21T05:39:07;0.80;;;0.10;;
71941;SDS011;59997;53.300;-6.260;2024-02-21T05:41:33;0.93;;;0.10;;
71941;SDS011;59997;53.300;-6.260;2024-02-21T05:43:58;1.00;;;0.10;;
71941;SDS011;59997;53.300;-6.260;2024-02-21T05:46:24;1.17;;;0.20;;
71941;SDS011;59997;53.300;-6.260;2024-02-21T05:48:49;0.93;;;0.10;;
71941;SDS011;59997;53.300;-6.260;2024-02-21T05:51:15;0.90;;;0.10;;
71941;SDS011;59997;53.300;-6.260;2024-02-21T05:53:40;1.65;;;0.22;;
71941;SDS011;59997;53.300;-6.260;2024-02-21T05:56:15;0.90;;;0.20;;
71941;SDS011;59997;53.300;-6.260;2024-02-21T05:58:42;1.20;;;0.10;;
71941;SDS011;59997;53.300;-6.260;2024-02-21T06:01:07;0.90;;;0.13;;
71941;SDS011;59997;53.300;-6.260;2024-02-21T06:03:33;1.10;;;0.20;;
71941;SDS011;59997;53.300;-6.260;2024-02-21T06:05:59;3.30;;;0.20;;
71941;SDS011;59997;53.300;-6.260;2024-02-21T06:08:25;2.25;;;0.20;;
71941;SDS011;59997;53.300;-6.260;2024-02-21T06:10:50;0.73;;;0.10;;
71941;SDS011;59997;53.300;-6.260;2024-02-21T06:13:26;1.25;;;0.15;;
71941;SDS011;59997;53.300;-6.260;2024-02-21T06:15:52;1.25;;;0.15;;
71941;SDS011;59997;53.300;-6.260;2024-02-21T06:18:18;0.80;;;0.10;;
71941;SDS011;59997;53.300;-6.260;2024-02-21T06:20:44;0.85;;;0.20;;
71941;SDS011;59997;53.300;-6.260;2024-02-21T06:23:11;1.00;;;0.10;;
71941;SDS011;59997;53.300;-6.260;2024-02-21T06:25:37;0.85;;;0.17;;
71941;SDS011;59997;53.300;-6.260;2024-02-21T06:28:03;1.00;;;0.10;;
71941;SDS011;59997;53.300;-6.260;2024-02-21T06:30:29;1.00;;;0.10;;
71941;SDS011;59997;53.300;-6.260;2024-02-21T06:32:55;1.03;;;0.10;;
71941;SDS011;59997;53.300;-6.260;2024-02-21T06:35:21;0.75;;;0.10;;
71941;SDS011;59997;53.300;-6.260;2024-02-21T06:37:46;1.00;;;0.10;;
71941;SDS011;59997;53.300;-6.260;2024-02-21T06:40:17;2.00;;;0.20;;
71941;SDS011;59997;53.300;-6.260;2024-02-21T06:42:44;0.70;;;0.13;;
71941;SDS011;59997;53.300;-6.260;2024-02-21T06:45:10;1.80;;;0.10;;
71941;SDS011;59997;53.300;-6.260;2024-02-21T06:47:35;1.07;;;0.10;;
71941;SDS011;59997;53.300;-6.260;2024-02-21T06:50:02;1.57;;;0.10;;
71941;SDS011;59997;53.300;-6.260;2024-02-21T06:52:28;1.02;;;0.10;;
71941;SDS011;59997;53.300;-6.260;2024-02-21T06:54:53;1.27;;;0.20;;
71941;SDS011;59997;53.300;-6.260;2024-02-21T06:57:19;2.13;;;0.20;;
71941;SDS011;59997;53.300;-6.260;2024-02-21T06:59:44;0.87;;;0.17;;
71941;SDS011;59997;53.300;-6.260;2024-02-21T07:02:10;1.53;;;0.10;;
71941;SDS011;59997;53.300;-6.260;2024-02-21T07:04:35;0.70;;;0.10;;
71941;SDS011;59997;53.300;-6.260;2024-02-21T07:07:01;0.90;;;0.10;;
71941;SDS011;59997;53.300;-6.260;2024-02-21T07:09:27;1.17;;;0.10;;
71941;SDS011;59997;53.300;-6.260;2024-02-21T07:11:53;0.88;;;0.10;;
71941;SDS011;59997;53.300;-6.260;2024-02-21T07:14:19;1.05;;;0.13;;
71941;SDS011;59997;53.300;-6.260;2024-02-21T07:16:45;1.03;;;0.13;;
71941;SDS011;59997;53.300;-6.260;2024-02-21T07:19:10;0.90;;;0.10;;
71941;SDS011;59997;53.300;-6.260;2024-02-21T07:21:36;1.10;;;0.20;;
71941;SDS011;59997;53.300;-6.260;2024-02-21T07:24:03;1.00;;;0.13;;
71941;SDS011;59997;53.300;-6.260;2024-02-21T07:26:29;1.17;;;0.20;;
71941;SDS011;59997;53.300;-6.260;2024-02-21T07:28:56;0.73;;;0.10;;
71941;SDS011;59997;53.300;-6.260;2024-02-21T07:31:21;1.23;;;0.10;;
71941;SDS011;59997;53.300;-6.260;2024-02-21T07:33:47;0.80;;;0.10;;
71941;SDS011;59997;53.300;-6.260;2024-02-21T07:36:14;0.77;;;0.10;;
71941;SDS011;59997;53.300;-6.260;2024-02-21T07:38:40;1.10;;;0.10;;
71941;SDS011;59997;53.300;-6.260;2024-02-21T07:41:06;1.42;;;0.20;;
71941;SDS011;59997;53.300;-6.260;2024-02-21T07:43:32;0.87;;;0.10;;
71941;SDS011;59997;53.300;-6.260;2024-02-21T07:45:58;0.98;;;0.10;;
71941;SDS011;59997;53.300;-6.260;2024-02-21T07:48:23;2.13;;;0.20;;
71941;SDS011;59997;53.300;-6.260;2024-02-21T07:50:52;0.70;;;0.10;;
71941;SDS011;59997;53.300;-6.260;2024-02-21T07:53:19;1.15;;;0.10;;
71941;SDS011;59997;53.300;-6.260;2024-02-21T07:55:45;0.80;;;0.10;;
71941;SDS011;59997;53.300;-6.260;2024-02-21T07:58:10;1.27;;;0.20;;
71941;SDS011;59997;53.300;-6.260;2024-02-21T08:00:36;1.00;;;0.10;;
71941;SDS011;59997;53.300;-6.260;2024-02-21T08:03:01;1.30;;;0.10;;
71941;SDS011;59997;53.300;-6.260;2024-02-21T08:05:27;0.85;;;0.10;;
71941;SDS011;59997;53.300;-6.260;2024-02-21T08:07:55;1.08;;;0.10;;
71941;SDS011;59997;53.300;-6.260;2024-02-21T08:10:20;0.73;;;0.10;;
71941;SDS011;59997;53.300;-6.260;2024-02-21T08:12:46;1.10;;;0.13;;
71941;SDS011;59997;53.300;-6.260;2024-02-21T08:15:11;0.90;;;0.10;;
71941;SDS011;59997;53.300;-6.260;2024-02-21T08:17:37;1.00;;;0.10;;
71941;SDS011;59997;53.300;-6.260;2024-02-21T08:20:04;1.17;;;0.10;;
71941;SDS011;59997;53.300;-6.260;2024-02-21T08:22:29;1.13;;;0.20;;
71941;SDS011;59997;53.300;-6.260;2024-02-21T08:24:55;1.20;;;0.10;;
71941;SDS011;59997;53.300;-6.260;2024-02-21T08:27:21;1.53;;;0.20;;
71941;SDS011;59997;53.300;-6.260;2024-02-21T08:29:46;1.27;;;0.20;;
71941;SDS011;59997;53.300;-6.260;2024-02-21T08:32:12;1.30;;;0.20;;
71941;SDS011;59997;53.300;-6.260;2024-02-21T08:34:37;1.30;;;0.20;;
71941;SDS011;59997;53.300;-6.260;2024-02-21T08:37:03;0.97;;;0.10;;
71941;SDS011;59997;53.300;-6.260;2024-02-21T08:39:29;1.73;;;0.20;;
71941;SDS011;59997;53.300;-6.260;2024-02-21T08:41:55;2.30;;;0.23;;
71941;SDS011;59997;53.300;-6.260;2024-02-21T08:44:22;1.35;;;0.20;;
71941;SDS011;59997;53.300;-6.260;2024-02-21T08:46:52;1.02;;;0.17;;
71941;SDS011;59997;53.300;-6.260;2024-02-21T08:49:18;2.03;;;0.20;;
71941;SDS011;59997;53.300;-6.260;2024-02-21T08:51:43;1.27;;;0.20;;
71941;SDS011;59997;53.300;-6.260;2024-02-21T08:54:09;1.27;;;0.10;;
71941;SDS011;59997;53.300;-6.260;2024-02-21T08:56:34;2.30;;;0.20;;
71941;SDS011;59997;53.300;-6.260;2024-02-21T08:59:00;1.52;;;0.30;;
71941;SDS011;59997;53.300;-6.260;2024-02-21T09:01:26;1.10;;;0.10;;
71941;SDS011;59997;53.300;-6.260;2024-02-21T09:03:52;1.30;;;0.20;;
71941;SDS011;59997;53.300;-6.260;2024-02-21T09:06:22;1.58;;;0.22;;
71941;SDS011;59997;53.300;-6.260;2024-02-21T09:08:53;1.10;;;0.10;;
71941;SDS011;59997;53.300;-6.260;2024-02-21T09:11:21;1.58;;;0.20;;
71941;SDS011;59997;53.300;-6.260;2024-02-21T09:13:47;1.83;;;0.30;;
71941;SDS011;59997;53.300;-6.260;2024-02-21T09:16:12;2.23;;;0.30;;
71941;SDS011;59997;53.300;-6.260;2024-02-21T09:18:38;1.80;;;0.30;;
71941;SDS011;59997;53.300;-6.260;2024-02-21T09:21:03;2.00;;;0.20;;
71941;SDS011;59997;53.300;-6.260;2024-02-21T09:23:29;2.10;;;0.43;;
71941;SDS011;59997;53.300;-6.260;2024-02-21T09:25:56;2.15;;;0.30;;
71941;SDS011;59997;53.300;-6.260;2024-02-21T09:28:22;1.83;;;0.30;;
71941;SDS011;59997;53.300;-6.260;2024-02-21T09:30:47;2.03;;;0.20;;
71941;SDS011;59997;53.300;-6.260;2024-02-21T09:33:13;2.53;;;0.30;;
71941;SDS011;59997;53.300;-6.260;2024-02-21T09:35:39;1.40;;;0.20;;
71941;SDS011;59997;53.300;-6.260;2024-02-21T09:38:04;2.23;;;0.40;;
71941;SDS011;59997;53.300;-6.260;2024-02-21T09:40:30;1.53;;;0.30;;
71941;SDS011;59997;53.300;-6.260;2024-02-21T09:43:02;2.33;;;0.40;;
71941;SDS011;59997;53.300;-6.260;2024-02-21T09:45:32;2.05;;;0.35;;
71941;SDS011;59997;53.300;-6.260;2024-02-21T09:50:43;1.63;;;0.28;;
71941;SDS011;59997;53.300;-6.260;2024-02-21T09:53:09;2.50;;;0.57;;
71941;SDS011;59997;53.300;-6.260;2024-02-21T09:55:37;2.65;;;0.60;;
71941;SDS011;59997;53.300;-6.260;2024-02-21T09:58:05;2.40;;;0.30;;
71941;SDS011;59997;53.300;-6.260;2024-02-21T10:00:31;3.63;;;0.60;;
71941;SDS011;59997;53.300;-6.260;2024-02-21T10:02:57;3.20;;;0.50;;
71941;SDS011;59997;53.300;-6.260;2024-02-21T10:05:23;2.53;;;0.40;;
71941;SDS011;59997;53.300;-6.260;2024-02-21T10:07:51;3.10;;;0.45;;
71941;SDS011;59997;53.300;-6.260;2024-02-21T10:10:17;3.97;;;0.30;;
71941;SDS011;59997;53.300;-6.260;2024-02-21T10:12:52;1.90;;;0.30;;
71941;SDS011;59997;53.300;-6.260;2024-02-21T10:15:21;2.53;;;0.40;;
71941;SDS011;59997;53.300;-6.260;2024-02-21T10:17:48;1.97;;;0.30;;
71941;SDS011;59997;53.300;-6.260;2024-02-21T10:20:13;2.33;;;0.30;;
71941;SDS011;59997;53.300;-6.260;2024-02-21T10:22:40;1.98;;;0.25;;
71941;SDS011;59997;53.300;-6.260;2024-02-21T10:25:09;1.58;;;0.20;;
71941;SDS011;59997;53.300;-6.260;2024-02-21T10:27:36;1.73;;;0.27;;
71941;SDS011;59997;53.300;-6.260;2024-02-21T10:30:02;1.85;;;0.30;;
71941;SDS011;59997;53.300;-6.260;2024-02-21T10:32:29;3.75;;;0.77;;
71941;SDS011;59997;53.300;-6.260;2024-02-21T10:35:04;3.15;;;0.50;;
71941;SDS011;59997;53.300;-6.260;2024-02-21T10:37:30;4.93;;;1.17;;
71941;SDS011;59997;53.300;-6.260;2024-02-21T10:39:57;5.27;;;0.87;;
71941;SDS011;59997;53.300;-6.260;2024-02-21T10:42:22;4.82;;;0.82;;
71941;SDS011;59997;53.300;-6.260;2024-02-21T10:44:51;3.88;;;0.70;;
71941;SDS011;59997;53.300;-6.260;2024-02-21T10:47:17;2.33;;;0.30;;
71941;SDS011;59997;53.300;-6.260;2024-02-21T10:49:50;2.33;;;0.38;;
71941;SDS011;59997;53.300;-6.260;2024-02-21T10:52:46;3.17;;;0.50;;
71941;SDS011;59997;53.300;-6.260;2024-02-21T10:55:20;3.10;;;0.32;;
71941;SDS011;59997;53.300;-6.260;2024-02-21T10:57:50;2.42;;;0.30;;
71941;SDS011;59997;53.300;-6.260;2024-02-21T11:00:17;3.83;;;0.30;;
71941;SDS011;59997;53.300;-6.260;2024-02-21T11:02:44;2.03;;;0.30;;
71941;SDS011;59997;53.300;-6.260;2024-02-21T11:05:11;1.67;;;0.20;;
71941;SDS011;59997;53.300;-6.260;2024-02-21T11:07:37;2.13;;;0.30;;
71941;SDS011;59997;53.300;-6.260;2024-02-21T11:10:04;1.55;;;0.20;;
71941;SDS011;59997;53.300;-6.260;2024-02-21T11:12:32;3.20;;;0.40;;
71941;SDS011;59997;53.300;-6.260;2024-02-21T11:15:07;2.03;;;0.30;;
71941;SDS011;59997;53.300;-6.260;2024-02-21T11:17:33;2.30;;;0.40;;
71941;SDS011;59997;53.300;-6.260;2024-02-21T11:19:59;3.33;;;0.30;;
71941;SDS011;59997;53.300;-6.260;2024-02-21T11:22:40;1.73;;;0.20;;
71941;SDS011;59997;53.300;-6.260;2024-02-21T11:25:07;3.35;;;0.40;;
71941;SDS011;59997;53.300;-6.260;2024-02-21T11:27:38;3.40;;;0.40;;
71941;SDS011;59997;53.300;-6.260;2024-02-21T11:30:11;4.57;;;0.50;;
71941;SDS011;59997;53.300;-6.260;2024-02-21T11:32:37;2.17;;;0.30;;
71941;SDS011;59997;53.300;-6.260;2024-02-21T11:35:03;2.75;;;0.40;;
71941;SDS011;59997;53.300;-6.260;2024-02-21T11:37:33;2.73;;;0.30;;
71941;SDS011;59997;53.300;-6.260;2024-02-21T11:40:02;2.63;;;0.30;;
71941;SDS011;59997;53.300;-6.260;2024-02-21T11:42:28;2.28;;;0.22;;
71941;SDS011;59997;53.300;-6.260;2024-02-21T11:44:55;2.67;;;0.30;;
71941;SDS011;59997;53.300;-6.260;2024-02-21T11:47:24;2.53;;;0.30;;
71941;SDS011;59997;53.300;-6.260;2024-02-21T11:49:50;3.37;;;0.40;;
71941;SDS011;59997;53.300;-6.260;2024-02-21T11:52:19;3.63;;;0.50;;
71941;SDS011;59997;53.300;-6.260;2024-02-21T11:54:50;3.15;;;0.40;;
71941;SDS011;59997;53.300;-6.260;2024-02-21T11:57:16;4.72;;;0.55;;
71941;SDS011;59997;53.300;-6.260;2024-02-21T11:59:42;3.22;;;0.43;;
71941;SDS011;59997;53.300;-6.260;2024-02-21T12:02:09;3.17;;;0.30;;
71941;SDS011;59997;53.300;-6.260;2024-02-21T12:04:37;1.88;;;0.30;;
71941;SDS011;59997;53.300;-6.260;2024-02-21T12:07:03;3.08;;;0.30;;
71941;SDS011;59997;53.300;-6.260;2024-02-21T12:09:29;1.95;;;0.30;;
71941;SDS011;59997;53.300;-6.260;2024-02-21T12:12:02;2.92;;;0.30;;
71941;SDS011;59997;53.300;-6.260;2024-02-21T12:14:30;2.13;;;0.20;;
71941;SDS011;59997;53.300;-6.260;2024-02-21T12:16:56;3.58;;;0.45;;
71941;SDS011;59997;53.300;-6.260;2024-02-21T12:19:22;3.08;;;0.40;;
71941;SDS011;59997;53.300;-6.260;2024-02-21T12:21:48;4.63;;;0.50;;
71941;SDS011;59997;53.300;-6.260;2024-02-21T12:24:23;10.40;;;0.70;;
71941;SDS011;59997;53.300;-6.260;2024-02-21T12:26:50;4.40;;;0.90;;
71941;SDS011;59997;53.300;-6.260;2024-02-21T12:29:17;6.25;;;1.10;;
71941;SDS011;59997;53.300;-6.260;2024-02-21T12:31:44;6.18;;;0.80;;
71941;SDS011;59997;53.300;-6.260;2024-02-21T12:34:10;6.85;;;1.27;;
71941;SDS011;59997;53.300;-6.260;2024-02-21T12:36:36;6.17;;;0.90;;
71941;SDS011;59997;53.300;-6.260;2024-02-21T12:39:06;5.43;;;1.00;;
71941;SDS011;59997;53.300;-6.260;2024-02-21T12:41:32;4.33;;;1.17;;
71941;SDS011;59997;53.300;-6.260;2024-02-21T12:43:58;4.32;;;0.70;;
71941;SDS011;59997;53.300;-6.260;2024-02-21T12:46:24;6.00;;;0.80;;
71941;SDS011;59997;53.300;-6.260;2024-02-21T12:48:50;4.93;;;0.63;;
71941;SDS011;59997;53.300;-6.260;2024-02-21T12:51:15;6.32;;;0.98;;
71941;SDS011;59997;53.300;-6.260;2024-02-21T12:53:45;5.53;;;0.60;;
71941;SDS011;59997;53.300;-6.260;2024-02-21T12:56:12;7.05;;;1.00;;
71941;SDS011;59997;53.300;-6.260;2024-02-21T12:58:38;6.13;;;0.73;;
71941;SDS011;59997;53.300;-6.260;2024-02-21T13:01:03;7.30;;;1.10;;
71941;SDS011;59997;53.300;-6.260;2024-02-21T13:03:29;4.17;;;0.40;;
71941;SDS011;59997;53.300;-6.260;2024-02-21T13:05:55;5.53;;;0.85;;
71941;SDS011;59997;53.300;-6.260;2024-02-21T13:08:21;3.17;;;0.53;;
71941;SDS011;59997;53.300;-6.260;2024-02-21T13:10:48;5.63;;;1.13;;
71941;SDS011;59997;53.300;-6.260;2024-02-21T13:13:14;6.15;;;0.60;;
71941;SDS011;59997;53.300;-6.260;2024-02-21T13:15:39;4.27;;;0.50;;
71941;SDS011;59997;53.300;-6.260;2024-02-21T13:18:08;4.00;;;0.80;;
71941;SDS011;59997;53.300;-6.260;2024-02-21T13:20:33;4.57;;;0.82;;
71941;SDS011;59997;53.300;-6.260;2024-02-21T13:22:59;4.50;;;0.80;;
71941;SDS011;59997;53.300;-6.260;2024-02-21T13:25:24;5.55;;;0.70;;
71941;SDS011;59997;53.300;-6.260;2024-02-21T13:27:50;3.90;;;0.50;;
71941;SDS011;59997;53.300;-6.260;2024-02-21T13:30:16;4.70;;;0.80;;
71941;SDS011;59997;53.300;-6.260;2024-02-21T13:32:42;4.60;;;0.50;;
71941;SDS011;59997;53.300;-6.260;2024-02-21T13:35:08;6.05;;;0.75;;
71941;SDS011;59997;53.300;-6.260;2024-02-21T13:37:37;3.88;;;0.60;;
71941;SDS011;59997;53.300;-6.260;2024-02-21T13:40:03;9.05;;;1.30;;
71941;SDS011;59997;53.300;-6.260;2024-02-21T13:42:29;5.13;;;0.53;;
71941;SDS011;59997;53.300;-6.260;2024-02-21T13:44:55;6.93;;;1.02;;
71941;SDS011;59997;53.300;-6.260;2024-02-21T13:47:20;5.17;;;0.60;;
71941;SDS011;59997;53.300;-6.260;2024-02-21T13:49:46;5.55;;;0.60;;
71941;SDS011;59997;53.300;-6.260;2024-02-21T13:52:13;8.70;;;0.75;;
71941;SDS011;59997;53.300;-6.260;2024-02-21T13:54:39;4.45;;;0.52;;
71941;SDS011;59997;53.300;-6.260;2024-02-21T13:57:05;5.23;;;0.60;;
71941;SDS011;59997;53.300;-6.260;2024-02-21T13:59:30;5.90;;;0.73;;
71941;SDS011;59997;53.300;-6.260;2024-02-21T14:01:58;5.38;;;1.10;;
71941;SDS011;59997;53.300;-6.260;2024-02-21T14:04:24;4.38;;;0.65;;
71941;SDS011;59997;53.300;-6.260;2024-02-21T14:06:49;5.17;;;0.57;;
71941;SDS011;59997;53.300;-6.260;2024-02-21T14:09:15;5.35;;;0.80;;
71941;SDS011;59997;53.300;-6.260;2024-02-21T14:11:40;6.43;;;0.60;;
71941;SDS011;59997;53.300;-6.260;2024-02-21T14:14:07;4.80;;;0.50;;
71941;SDS011;59997;53.300;-6.260;2024-02-21T14:16:33;5.03;;;0.40;;
71941;SDS011;59997;53.300;-6.260;2024-02-21T14:18:59;5.13;;;0.47;;
71941;SDS011;59997;53.300;-6.260;2024-02-21T14:21:24;7.30;;;0.60;;
71941;SDS011;59997;53.300;-6.260;2024-02-21T14:23:50;4.40;;;0.70;;
71941;SDS011;59997;53.300;-6.260;2024-02-21T14:26:16;4.53;;;0.50;;
71941;SDS011;59997;53.300;-6.260;2024-02-21T14:28:42;6.13;;;0.60;;
71941;SDS011;59997;53.300;-6.260;2024-02-21T14:31:07;6.90;;;0.70;;
71941;SDS011;59997;53.300;-6.260;2024-02-21T14:33:37;5.78;;;0.60;;
71941;SDS011;59997;53.300;-6.260;2024-02-21T14:36:03;7.82;;;0.63;;